Terminal Aerodrome Forecast
Issued by NWS Charleston, WV

Current Version | Previous Version | Text Only | Print | Product List | Glossary Off
Versions: 1 2 3 4 5 6 7 8 9 10 11 12 13 14 15 16 17 18 19 20 21

574
FTUS41 KRLX 242322
TAFEKN
TAF
KEKN 242322Z 2500/2524 31004KT P6SM FEW050
     FM250200 00000KT P6SM SKC
     FM250600 00000KT 6SM HZ SKC
     FM250800 00000KT 3SM HZ SCT001
     FM251000 00000KT 1/2SM FG BKN001
     FM251200 00000KT 3SM BR SCT001
     FM251300 VRB03KT P6SM SKC
     FM251600 25006KT P6SM SCT050=

USA.gov is the U.S. government's official web portal to all federal, state and local government web resources and services.